Time;durP1;ratioP1;P1;durP2;ratioP2;P2;SDS_P1;SDS_P2;PMS_P1;PMS_P2;Temp;Humidity;BMP_temperature;BMP_pressure;BME280_temperature;BME280_humidity;BME280_pressure;Samples;Min_cycle;Max_cycle;Signal;HPM_P1;HPM_P2
2023/12/18 00:01:11;;;;;;;23.83;10.35;;;;;;;;;;4979023;28;20813;-56
2023/12/18 00:03:37;;;;;;;19.20;10.25;;;;;;;;;;4977046;28;20050;-55
2023/12/18 00:06:03;;;;;;;18.00;9.90;;;;;;;;;;4978072;28;20050;-55
2023/12/18 00:08:29;;;;;;;24.10;10.05;;;;;;;;;;4977643;28;20050;-55
2023/12/18 00:10:55;;;;;;;19.15;9.20;;;;;;;;;;4982539;28;20045;-55
2023/12/18 00:13:21;;;;;;;17.65;9.27;;;;;;;;;;4978014;28;20039;-55
2023/12/18 00:15:47;;;;;;;17.92;9.18;;;;;;;;;;4987591;28;20050;-55
2023/12/18 00:18:13;;;;;;;24.50;10.68;;;;;;;;;;4975031;28;20084;-56
2023/12/18 00:20:39;;;;;;;18.27;9.23;;;;;;;;;;4975650;28;20256;-55
2023/12/18 00:23:05;;;;;;;16.13;9.38;;;;;;;;;;4992773;28;20076;-55
2023/12/18 00:25:31;;;;;;;18.85;8.80;;;;;;;;;;4999387;28;20517;-54
2023/12/18 00:27:57;;;;;;;19.67;9.63;;;;;;;;;;4998066;28;20038;-54
2023/12/18 00:30:23;;;;;;;16.42;8.90;;;;;;;;;;4996357;28;20042;-56
2023/12/18 00:32:49;;;;;;;17.85;9.68;;;;;;;;;;5002853;28;20046;-56
2023/12/18 00:35:15;;;;;;;18.55;9.70;;;;;;;;;;4998135;28;20117;-54
2023/12/18 00:37:41;;;;;;;19.42;8.90;;;;;;;;;;4996775;28;20089;-55
2023/12/18 00:40:07;;;;;;;16.27;9.30;;;;;;;;;;4992444;28;20430;-54
2023/12/18 00:42:33;;;;;;;18.60;9.30;;;;;;;;;;4999180;28;20196;-55
2023/12/18 00:44:59;;;;;;;14.38;9.15;;;;;;;;;;4996451;28;20054;-56
2023/12/18 00:47:25;;;;;;;16.27;9.57;;;;;;;;;;4999450;28;20051;-55
2023/12/18 00:49:51;;;;;;;19.25;10.02;;;;;;;;;;4998176;28;20042;-53
2023/12/18 00:52:17;;;;;;;24.35;10.52;;;;;;;;;;4995569;28;20042;-55
2023/12/18 00:54:43;;;;;;;19.17;9.73;;;;;;;;;;4998456;28;20368;-56
2023/12/18 00:57:09;;;;;;;20.80;8.65;;;;;;;;;;4995109;28;20030;-55
2023/12/18 00:59:35;;;;;;;20.52;9.48;;;;;;;;;;4998817;28;20107;-56
2023/12/18 01:02:01;;;;;;;16.90;8.23;;;;;;;;;;5001434;28;20406;-53
2023/12/18 01:04:27;;;;;;;19.30;9.18;;;;;;;;;;4986113;28;20317;-54
2023/12/18 01:06:53;;;;;;;20.55;9.07;;;;;;;;;;4997097;28;20026;-55
2023/12/18 01:09:18;;;;;;;19.50;8.95;;;;;;;;;;4998050;28;20068;-56
2023/12/18 01:11:44;;;;;;;17.20;8.55;;;;;;;;;;4982838;28;20415;-54
2023/12/18 01:14:11;;;;;;;20.33;9.10;;;;;;;;;;4993623;28;20077;-55
2023/12/18 01:16:37;;;;;;;15.60;8.93;;;;;;;;;;4996858;28;20041;-55
2023/12/18 01:19:03;;;;;;;17.67;8.93;;;;;;;;;;5002009;28;20042;-56
2023/12/18 01:21:29;;;;;;;16.50;8.25;;;;;;;;;;4998479;28;20044;-54
2023/12/18 01:23:55;;;;;;;23.00;9.20;;;;;;;;;;4997881;28;20157;-55
2023/12/18 01:26:20;;;;;;;17.27;7.95;;;;;;;;;;4996882;28;20046;-55
2023/12/18 01:28:46;;;;;;;14.85;8.13;;;;;;;;;;4996930;28;20327;-55
2023/12/18 01:31:22;;;;;;;14.02;7.53;;;;;;;;;;5001578;28;20038;-56
2023/12/18 01:33:48;;;;;;;16.35;8.32;;;;;;;;;;4997926;28;20031;-55
2023/12/18 01:36:14;;;;;;;22.35;8.07;;;;;;;;;;4998953;28;20034;-54
2023/12/18 01:38:40;;;;;;;18.65;8.05;;;;;;;;;;5006546;28;20065;-55
2023/12/18 01:41:06;;;;;;;16.75;7.72;;;;;;;;;;4997190;28;20108;-56
2023/12/18 01:43:32;;;;;;;19.23;8.23;;;;;;;;;;4998869;28;20034;-54
2023/12/18 01:45:59;;;;;;;17.85;8.63;;;;;;;;;;5002459;28;20065;-53
2023/12/18 01:48:26;;;;;;;16.73;7.57;;;;;;;;;;4997260;28;20066;-55
2023/12/18 01:50:55;;;;;;;16.88;8.18;;;;;;;;;;5001504;28;20903;-56
2023/12/18 01:53:25;;;;;;;20.15;8.55;;;;;;;;;;4999537;28;20042;-54
2023/12/18 01:55:51;;;;;;;17.75;8.75;;;;;;;;;;4999990;28;20041;-56
2023/12/18 01:58:18;;;;;;;22.33;8.80;;;;;;;;;;4997651;28;20042;-56
2023/12/18 02:00:44;;;;;;;17.65;9.15;;;;;;;;;;5000513;28;20042;-54
2023/12/18 02:03:10;;;;;;;25.52;8.95;;;;;;;;;;4997943;28;20444;-54
2023/12/18 02:05:37;;;;;;;19.50;9.20;;;;;;;;;;5002436;28;20525;-55
2023/12/18 02:08:03;;;;;;;19.95;8.63;;;;;;;;;;5001557;28;20038;-55
2023/12/18 02:10:30;;;;;;;22.38;9.70;;;;;;;;;;5002164;28;20049;-56
2023/12/18 02:12:56;;;;;;;18.40;9.60;;;;;;;;;;5002591;28;20045;-55
2023/12/18 02:15:22;;;;;;;23.48;9.57;;;;;;;;;;4999674;28;20033;-55
2023/12/18 02:17:48;;;;;;;19.85;10.60;;;;;;;;;;4999259;28;20375;-55
2023/12/18 02:20:14;;;;;;;21.65;9.75;;;;;;;;;;5002473;28;20132;-55
2023/12/18 02:22:46;;;;;;;22.23;10.50;;;;;;;;;;4995865;28;20034;-55
2023/12/18 02:25:13;;;;;;;13.47;7.33;;;;;;;;;;4999876;28;20038;-54
2023/12/18 02:27:39;;;;;;;17.48;9.82;;;;;;;;;;4996249;28;20030;-54
2023/12/18 02:30:05;;;;;;;18.05;9.63;;;;;;;;;;4996907;28;20057;-54
2023/12/18 02:32:31;;;;;;;22.02;10.40;;;;;;;;;;4998629;28;20512;-54
2023/12/18 02:34:57;;;;;;;18.40;10.20;;;;;;;;;;5001836;28;20022;-55
2023/12/18 02:37:24;;;;;;;21.75;10.68;;;;;;;;;;5000147;28;20174;-55
2023/12/18 02:39:50;;;;;;;25.98;10.65;;;;;;;;;;4996732;28;20528;-55
2023/12/18 02:42:16;;;;;;;20.70;9.95;;;;;;;;;;4976929;28;20041;-55
2023/12/18 02:44:42;;;;;;;20.77;10.00;;;;;;;;;;4998182;28;20034;-54
2023/12/18 02:47:08;;;;;;;19.27;9.98;;;;;;;;;;4996021;28;20045;-53
2023/12/18 02:49:34;;;;;;;20.00;9.20;;;;;;;;;;4996193;28;20038;-55
2023/12/18 02:52:00;;;;;;;26.60;11.40;;;;;;;;;;5000844;28;20042;-55
2023/12/18 02:54:26;;;;;;;21.70;10.63;;;;;;;;;;4991431;28;20413;-54
2023/12/18 02:56:52;;;;;;;19.38;11.25;;;;;;;;;;4996313;28;20034;-55
2023/12/18 02:59:18;;;;;;;19.80;10.13;;;;;;;;;;4995849;28;20038;-55
2023/12/18 03:01:44;;;;;;;20.15;10.90;;;;;;;;;;4994764;28;20104;-56
2023/12/18 03:04:10;;;;;;;25.88;11.07;;;;;;;;;;5002687;28;20137;-55
2023/12/18 03:06:36;;;;;;;32.15;11.18;;;;;;;;;;5000212;28;20038;-56
2023/12/18 03:09:02;;;;;;;30.27;13.75;;;;;;;;;;4996032;28;20049;-56
2023/12/18 03:11:27;;;;;;;32.75;14.68;;;;;;;;;;4999497;28;20046;-57
2023/12/18 03:13:54;;;;;;;31.80;16.00;;;;;;;;;;4995064;28;20480;-56
2023/12/18 03:16:20;;;;;;;37.95;16.70;;;;;;;;;;4979181;28;20096;-56
2023/12/18 03:18:46;;;;;;;33.63;16.27;;;;;;;;;;4997094;28;20091;-56
2023/12/18 03:21:12;;;;;;;32.05;15.23;;;;;;;;;;4996796;28;20034;-56
2023/12/18 03:23:38;;;;;;;40.30;17.13;;;;;;;;;;4995170;28;20074;-57
2023/12/18 03:26:04;;;;;;;35.10;16.13;;;;;;;;;;4995094;28;20483;-57
2023/12/18 03:28:30;;;;;;;39.17;17.33;;;;;;;;;;4995725;28;20057;-56
2023/12/18 03:30:56;;;;;;;46.85;18.50;;;;;;;;;;4998338;28;20042;-56
2023/12/18 03:33:22;;;;;;;33.90;17.27;;;;;;;;;;5000396;28;20046;-57
2023/12/18 03:35:48;;;;;;;36.17;16.52;;;;;;;;;;4999393;28;20072;-57
2023/12/18 03:38:13;;;;;;;39.38;16.83;;;;;;;;;;4989723;28;20034;-56
2023/12/18 03:40:39;;;;;;;39.78;18.83;;;;;;;;;;4996577;28;20050;-55
2023/12/18 03:43:05;;;;;;;34.72;17.65;;;;;;;;;;4997912;28;20405;-56
2023/12/18 03:45:31;;;;;;;42.63;18.83;;;;;;;;;;4998952;28;20484;-57
2023/12/18 03:47:57;;;;;;;44.10;19.05;;;;;;;;;;4994221;28;20052;-56
2023/12/18 03:50:23;;;;;;;50.88;20.60;;;;;;;;;;4996239;28;20042;-58
2023/12/18 03:52:49;;;;;;;49.78;21.95;;;;;;;;;;5002345;28;20501;-57
2023/12/18 03:55:16;;;;;;;51.10;22.30;;;;;;;;;;4997590;28;20445;-56
2023/12/18 03:57:42;;;;;;;45.78;22.80;;;;;;;;;;4998678;28;20076;-56
2023/12/18 04:00:08;;;;;;;47.50;22.65;;;;;;;;;;4998697;28;20033;-57
2023/12/18 04:02:34;;;;;;;46.10;21.20;;;;;;;;;;4997504;28;20122;-54
2023/12/18 04:05:00;;;;;;;46.42;20.80;;;;;;;;;;5001125;28;20120;-54
2023/12/18 04:07:26;;;;;;;47.58;20.67;;;;;;;;;;4997977;28;20093;-54
2023/12/18 04:09:52;;;;;;;41.90;20.58;;;;;;;;;;4998537;28;20041;-55
2023/12/18 04:12:18;;;;;;;38.38;19.58;;;;;;;;;;4994884;28;20448;-56
2023/12/18 04:14:44;;;;;;;42.28;20.05;;;;;;;;;;5001815;28;20402;-56
2023/12/18 04:17:09;;;;;;;43.20;19.23;;;;;;;;;;4998127;28;20406;-55
2023/12/18 04:19:35;;;;;;;46.42;21.02;;;;;;;;;;4996867;28;20158;-56
2023/12/18 04:22:01;;;;;;;42.90;20.65;;;;;;;;;;4999744;28;20076;-56
2023/12/18 04:24:28;;;;;;;42.03;19.83;;;;;;;;;;4995284;28;20584;-56
2023/12/18 04:26:54;;;;;;;35.92;19.67;;;;;;;;;;4996124;28;20030;-57
2023/12/18 04:29:20;;;;;;;43.35;20.02;;;;;;;;;;4998504;28;20038;-56
2023/12/18 04:31:46;;;;;;;40.30;19.40;;;;;;;;;;4998464;28;20048;-56
2023/12/18 04:34:12;;;;;;;40.40;20.50;;;;;;;;;;4998466;28;20038;-55
2023/12/18 04:36:39;;;;;;;42.33;20.25;;;;;;;;;;4996285;28;20488;-55
2023/12/18 04:39:05;;;;;;;38.53;18.63;;;;;;;;;;4997955;28;20042;-56
2023/12/18 04:41:31;;;;;;;39.65;18.77;;;;;;;;;;4995286;28;20073;-57
2023/12/18 04:43:57;;;;;;;34.45;19.23;;;;;;;;;;4995693;28;20034;-57
2023/12/18 04:46:23;;;;;;;37.10;18.27;;;;;;;;;;4998092;28;20586;-55
2023/12/18 04:48:49;;;;;;;32.25;17.00;;;;;;;;;;4993663;28;20034;-57
2023/12/18 04:51:15;;;;;;;37.17;18.17;;;;;;;;;;5000539;28;20026;-57
2023/12/18 04:53:41;;;;;;;38.20;18.35;;;;;;;;;;5003468;28;20348;-57
2023/12/18 04:56:07;;;;;;;37.50;18.20;;;;;;;;;;5000114;28;20033;-57
2023/12/18 04:58:34;;;;;;;35.65;19.27;;;;;;;;;;4998978;28;20588;-56
2023/12/18 05:01:00;;;;;;;41.63;19.38;;;;;;;;;;4992011;28;20409;-55
2023/12/18 05:03:26;;;;;;;42.67;19.70;;;;;;;;;;4998959;28;20115;-56
2023/12/18 05:05:52;;;;;;;41.20;18.80;;;;;;;;;;4999996;28;20038;-57
2023/12/18 05:08:18;;;;;;;37.83;18.75;;;;;;;;;;4997199;28;20110;-56
2023/12/18 05:10:44;;;;;;;39.78;17.92;;;;;;;;;;5001031;28;20433;-55
2023/12/18 05:13:10;;;;;;;38.10;18.65;;;;;;;;;;4999510;28;20030;-56
2023/12/18 05:15:37;;;;;;;42.47;19.25;;;;;;;;;;5001157;28;20098;-56
2023/12/18 05:18:04;;;;;;;37.13;19.20;;;;;;;;;;4999175;28;20046;-56
2023/12/18 05:20:30;;;;;;;35.83;18.00;;;;;;;;;;5002023;28;20038;-57
2023/12/18 05:22:56;;;;;;;38.80;18.65;;;;;;;;;;4996860;28;20053;-55
2023/12/18 05:25:22;;;;;;;40.47;17.92;;;;;;;;;;5002661;28;20167;-54
2023/12/18 05:27:48;;;;;;;42.38;18.55;;;;;;;;;;4999025;28;20049;-54
2023/12/18 05:30:14;;;;;;;40.55;19.15;;;;;;;;;;5000645;28;20037;-54
2023/12/18 05:32:39;;;;;;;36.22;17.35;;;;;;;;;;5002959;28;20034;-57
2023/12/18 05:35:07;;;;;;;37.55;18.58;;;;;;;;;;4997278;28;20041;-55
2023/12/18 05:37:33;;;;;;;37.70;17.73;;;;;;;;;;4999247;28;20068;-56
2023/12/18 05:39:58;;;;;;;37.25;18.33;;;;;;;;;;5002171;28;20037;-57
2023/12/18 05:42:24;;;;;;;37.58;19.27;;;;;;;;;;4995146;28;20037;-55
2023/12/18 05:44:50;;;;;;;45.20;20.45;;;;;;;;;;4998567;28;20389;-56
2023/12/18 05:47:16;;;;;;;41.35;20.73;;;;;;;;;;4996275;28;20038;-56
2023/12/18 05:49:42;;;;;;;38.88;19.92;;;;;;;;;;4999596;28;20133;-56
2023/12/18 05:52:08;;;;;;;46.00;21.35;;;;;;;;;;4995816;28;20090;-57
2023/12/18 05:54:34;;;;;;;40.95;21.13;;;;;;;;;;5002815;28;20768;-56
2023/12/18 05:57:00;;;;;;;42.97;20.45;;;;;;;;;;4995892;28;20041;-56
2023/12/18 05:59:26;;;;;;;42.55;20.30;;;;;;;;;;4996960;28;20377;-57
2023/12/18 06:01:52;;;;;;;42.05;21.33;;;;;;;;;;4997714;28;20431;-57
2023/12/18 06:04:18;;;;;;;46.28;20.70;;;;;;;;;;4998068;28;20061;-57
2023/12/18 06:06:44;;;;;;;37.47;20.67;;;;;;;;;;5001711;28;20037;-56
2023/12/18 06:09:11;;;;;;;37.80;20.55;;;;;;;;;;5003833;28;20030;-56
2023/12/18 06:11:36;;;;;;;44.75;21.85;;;;;;;;;;4998026;28;20034;-54
2023/12/18 06:14:02;;;;;;;50.03;22.20;;;;;;;;;;5000049;28;20468;-55
2023/12/18 06:16:29;;;;;;;42.67;21.20;;;;;;;;;;5003901;28;20420;-53
2023/12/18 06:18:55;;;;;;;40.20;20.67;;;;;;;;;;5000898;28;20536;-57
2023/12/18 06:21:21;;;;;;;43.60;20.98;;;;;;;;;;4999577;28;20042;-57
2023/12/18 06:23:47;;;;;;;45.42;20.65;;;;;;;;;;4998136;28;20049;-55
2023/12/18 06:26:13;;;;;;;42.45;20.75;;;;;;;;;;5002497;28;20033;-57
2023/12/18 06:28:39;;;;;;;41.13;21.55;;;;;;;;;;4999550;28;20038;-57
2023/12/18 06:31:05;;;;;;;43.97;22.17;;;;;;;;;;4999203;28;20145;-57
2023/12/18 06:33:31;;;;;;;41.42;20.52;;;;;;;;;;4999823;28;20026;-55
2023/12/18 06:35:57;;;;;;;41.65;22.05;;;;;;;;;;4997082;28;20045;-55
2023/12/18 06:38:23;;;;;;;46.05;22.27;;;;;;;;;;5001563;28;20030;-55
2023/12/18 06:40:49;;;;;;;42.00;21.40;;;;;;;;;;4999534;28;20030;-55
2023/12/18 06:43:16;;;;;;;43.90;22.33;;;;;;;;;;4996248;28;20463;-56
2023/12/18 06:45:42;;;;;;;47.88;22.13;;;;;;;;;;4997484;28;20117;-54
2023/12/18 06:48:08;;;;;;;44.55;22.77;;;;;;;;;;5000501;28;20068;-53
2023/12/18 06:50:34;;;;;;;46.33;22.45;;;;;;;;;;4997978;28;20097;-55
2023/12/18 06:53:01;;;;;;;45.38;23.42;;;;;;;;;;4996305;28;20100;-56
2023/12/18 06:55:27;;;;;;;46.10;23.13;;;;;;;;;;4993360;28;20034;-56
2023/12/18 06:57:53;;;;;;;44.50;23.20;;;;;;;;;;4999041;28;20049;-54
2023/12/18 07:00:19;;;;;;;48.75;22.02;;;;;;;;;;4976470;28;20034;-56
2023/12/18 07:02:45;;;;;;;42.13;21.90;;;;;;;;;;5000631;28;20509;-55
2023/12/18 07:05:15;;;;;;;42.70;22.50;;;;;;;;;;5001701;28;20040;-56
2023/12/18 07:07:41;;;;;;;41.60;20.88;;;;;;;;;;5002141;28;20046;-56
2023/12/18 07:10:07;;;;;;;45.13;21.40;;;;;;;;;;4999132;28;20438;-55
2023/12/18 07:12:33;;;;;;;41.17;20.98;;;;;;;;;;5002911;28;20034;-55
2023/12/18 07:14:59;;;;;;;47.92;22.45;;;;;;;;;;4991179;28;20116;-55
2023/12/18 07:17:25;;;;;;;46.38;21.70;;;;;;;;;;4999675;28;20030;-55
2023/12/18 07:19:51;;;;;;;45.53;22.13;;;;;;;;;;4981309;28;20409;-55
2023/12/18 07:22:17;;;;;;;47.22;21.17;;;;;;;;;;4994149;28;20405;-56
2023/12/18 07:24:43;;;;;;;40.28;21.00;;;;;;;;;;4993384;28;20034;-54
2023/12/18 07:27:09;;;;;;;42.95;21.63;;;;;;;;;;5001004;28;20461;-54
2023/12/18 07:29:35;;;;;;;51.22;22.55;;;;;;;;;;5000636;28;20030;-54
2023/12/18 07:32:01;;;;;;;48.78;21.23;;;;;;;;;;4997287;28;20042;-56
2023/12/18 07:34:27;;;;;;;49.05;21.20;;;;;;;;;;5001219;28;20138;-56
2023/12/18 07:36:53;;;;;;;47.45;21.20;;;;;;;;;;4991246;28;20295;-55
2023/12/18 07:39:20;;;;;;;46.00;19.70;;;;;;;;;;4997966;28;20508;-56
2023/12/18 07:41:46;;;;;;;43.60;20.45;;;;;;;;;;5000333;28;20960;-56
2023/12/18 07:44:11;;;;;;;46.75;21.27;;;;;;;;;;4998298;28;20262;-55
2023/12/18 07:46:37;;;;;;;44.97;20.70;;;;;;;;;;5001498;28;20227;-53
2023/12/18 07:49:04;;;;;;;43.17;19.95;;;;;;;;;;4992034;28;20077;-54
2023/12/18 07:51:30;;;;;;;47.40;20.98;;;;;;;;;;4996032;28;20053;-55
2023/12/18 07:53:55;;;;;;;42.60;20.40;;;;;;;;;;5002943;28;20485;-55
2023/12/18 07:56:21;;;;;;;42.67;19.30;;;;;;;;;;5000667;28;20361;-56
2023/12/18 07:58:47;;;;;;;50.78;20.25;;;;;;;;;;4997124;28;20077;-55
2023/12/18 08:01:16;;;;;;;46.55;19.95;;;;;;;;;;4998180;28;20087;-56
2023/12/18 08:03:42;;;;;;;45.83;21.23;;;;;;;;;;5000720;28;20069;-55
2023/12/18 08:06:08;;;;;;;42.40;19.90;;;;;;;;;;4997813;28;20030;-56
2023/12/18 08:08:34;;;;;;;45.85;19.45;;;;;;;;;;4996242;28;20028;-55
2023/12/18 08:11:00;;;;;;;46.60;21.27;;;;;;;;;;4996924;28;20037;-54
2023/12/18 08:13:26;;;;;;;50.83;21.83;;;;;;;;;;4995015;28;20041;-57
2023/12/18 08:15:52;;;;;;;43.45;21.48;;;;;;;;;;4998610;28;20125;-57
2023/12/18 08:18:18;;;;;;;53.78;21.35;;;;;;;;;;4994182;28;20034;-56
2023/12/18 08:20:44;;;;;;;46.65;21.20;;;;;;;;;;4995003;28;20402;-57
2023/12/18 08:23:10;;;;;;;39.97;19.60;;;;;;;;;;4997262;28;20536;-56
2023/12/18 08:25:36;;;;;;;40.78;19.80;;;;;;;;;;4999386;28;20034;-57
2023/12/18 08:28:02;;;;;;;45.03;19.65;;;;;;;;;;4999437;28;20080;-57
2023/12/18 08:30:28;;;;;;;41.88;19.75;;;;;;;;;;4987750;28;20057;-56
2023/12/18 08:32:54;;;;;;;41.80;20.08;;;;;;;;;;4997895;28;20088;-57
2023/12/18 08:35:20;;;;;;;36.92;19.05;;;;;;;;;;4996423;28;20063;-55
2023/12/18 08:37:46;;;;;;;46.28;20.48;;;;;;;;;;5004205;28;20080;-56
2023/12/18 08:40:12;;;;;;;44.17;20.50;;;;;;;;;;4996916;28;20038;-57
2023/12/18 08:42:38;;;;;;;45.63;22.60;;;;;;;;;;4996416;28;20073;-57
2023/12/18 08:45:04;;;;;;;48.40;23.10;;;;;;;;;;5000631;28;20387;-57
2023/12/18 08:47:31;;;;;;;46.67;22.55;;;;;;;;;;4996138;28;20139;-56
2023/12/18 08:49:57;;;;;;;50.85;24.42;;;;;;;;;;4998998;28;20158;-57
2023/12/18 08:52:23;;;;;;;49.90;23.58;;;;;;;;;;4995840;28;20054;-56
2023/12/18 08:54:48;;;;;;;45.55;22.85;;;;;;;;;;4998486;28;20053;-57
2023/12/18 08:57:14;;;;;;;51.63;24.60;;;;;;;;;;4997590;28;20112;-57
2023/12/18 08:59:40;;;;;;;52.00;24.27;;;;;;;;;;5000042;28;20041;-57
2023/12/18 09:02:06;;;;;;;50.00;23.25;;;;;;;;;;4997628;28;20448;-56
2023/12/18 09:04:32;;;;;;;50.53;23.52;;;;;;;;;;4998602;28;20494;-56
2023/12/18 09:06:58;;;;;;;51.65;23.08;;;;;;;;;;4985501;28;20041;-55
2023/12/18 09:09:24;;;;;;;48.75;22.50;;;;;;;;;;4998743;28;20053;-56
2023/12/18 09:11:50;;;;;;;43.53;22.25;;;;;;;;;;5000755;28;20316;-58
2023/12/18 09:14:16;;;;;;;49.53;22.75;;;;;;;;;;4979307;28;20068;-57
2023/12/18 09:16:42;;;;;;;48.72;21.52;;;;;;;;;;4994047;28;20089;-55
2023/12/18 09:19:08;;;;;;;46.20;23.67;;;;;;;;;;4996736;28;20034;-57
2023/12/18 09:21:34;;;;;;;49.25;23.20;;;;;;;;;;4996443;28;20215;-55
2023/12/18 09:24:00;;;;;;;56.38;23.35;;;;;;;;;;4995793;28;20045;-57
2023/12/18 09:26:26;;;;;;;49.00;22.10;;;;;;;;;;4994303;28;20128;-56
2023/12/18 09:28:52;;;;;;;46.45;22.15;;;;;;;;;;4982213;28;20037;-57
2023/12/18 09:31:18;;;;;;;48.55;23.25;;;;;;;;;;4996645;28;20042;-55
2023/12/18 09:33:44;;;;;;;45.08;22.83;;;;;;;;;;5000883;28;20038;-55
2023/12/18 09:36:10;;;;;;;47.92;22.80;;;;;;;;;;4991898;28;20034;-55
2023/12/18 09:38:37;;;;;;;46.38;23.17;;;;;;;;;;5002954;28;20030;-56
2023/12/18 09:41:03;;;;;;;39.60;22.45;;;;;;;;;;5001475;28;20080;-55
2023/12/18 09:43:29;;;;;;;43.30;23.20;;;;;;;;;;5003727;28;20041;-54
2023/12/18 09:45:58;;;;;;;43.65;22.40;;;;;;;;;;5002313;28;20125;-54
2023/12/18 09:48:24;;;;;;;47.28;23.50;;;;;;;;;;4999821;28;20034;-54
2023/12/18 09:50:50;;;;;;;47.42;24.25;;;;;;;;;;4983368;28;20034;-54
2023/12/18 09:53:22;;;;;;;41.85;22.63;;;;;;;;;;5001137;28;20045;-56
2023/12/18 09:55:51;;;;;;;47.37;23.87;;;;;;;;;;5000615;28;20278;-55
2023/12/18 09:58:18;;;;;;;44.60;24.70;;;;;;;;;;5002121;28;20022;-54
2023/12/18 10:00:44;;;;;;;46.35;22.48;;;;;;;;;;5002806;28;20147;-55
2023/12/18 10:03:13;;;;;;;44.35;23.35;;;;;;;;;;4998618;28;20053;-56
2023/12/18 10:05:40;;;;;;;47.00;23.45;;;;;;;;;;5000044;28;20034;-57
2023/12/18 10:08:06;;;;;;;50.00;23.98;;;;;;;;;;5001492;28;20120;-56
2023/12/18 10:10:32;;;;;;;45.75;24.20;;;;;;;;;;5004258;28;20045;-57
2023/12/18 10:12:58;;;;;;;51.25;22.88;;;;;;;;;;5001970;28;20034;-55
2023/12/18 10:15:24;;;;;;;46.45;22.92;;;;;;;;;;4997820;28;20026;-56
2023/12/18 10:17:50;;;;;;;46.17;25.08;;;;;;;;;;5002909;28;20355;-57
2023/12/18 10:20:17;;;;;;;49.53;23.50;;;;;;;;;;4999164;28;20034;-56
2023/12/18 10:22:44;;;;;;;45.30;23.10;;;;;;;;;;4993441;28;20046;-56
2023/12/18 10:25:12;;;;;;;44.08;21.45;;;;;;;;;;4998961;28;20477;-57
2023/12/18 10:27:38;;;;;;;43.50;21.95;;;;;;;;;;4982922;28;20057;-56
2023/12/18 10:30:08;;;;;;;47.03;23.20;;;;;;;;;;4998132;28;20353;-57
2023/12/18 10:32:36;;;;;;;40.17;21.95;;;;;;;;;;5000154;28;20068;-57
2023/12/18 10:35:02;;;;;;;44.30;22.25;;;;;;;;;;4999980;28;20042;-57
2023/12/18 10:37:30;;;;;;;41.90;22.42;;;;;;;;;;5002556;28;20558;-57
2023/12/18 10:40:00;;;;;;;42.78;23.10;;;;;;;;;;4995640;28;20048;-57
2023/12/18 10:42:29;;;;;;;46.47;22.13;;;;;;;;;;4994767;28;20557;-55
2023/12/18 10:44:58;;;;;;;43.65;21.35;;;;;;;;;;4999658;28;20073;-56
2023/12/18 10:47:26;;;;;;;40.22;20.73;;;;;;;;;;4994216;28;20062;-54
2023/12/18 10:49:53;;;;;;;37.63;20.35;;;;;;;;;;4982585;28;20416;-56
2023/12/18 10:52:20;;;;;;;40.63;20.65;;;;;;;;;;5000438;28;20041;-55
2023/12/18 10:54:46;;;;;;;41.45;19.90;;;;;;;;;;5000287;28;20202;-55
2023/12/18 10:57:17;;;;;;;39.05;18.92;;;;;;;;;;4996014;28;20052;-55
2023/12/18 10:59:47;;;;;;;35.67;19.38;;;;;;;;;;5002464;28;20138;-56
2023/12/18 11:02:13;;;;;;;38.70;18.98;;;;;;;;;;4997672;28;20428;-55
2023/12/18 11:04:39;;;;;;;42.45;19.60;;;;;;;;;;4999637;28;20405;-55
2023/12/18 11:07:06;;;;;;;36.20;18.42;;;;;;;;;;4995682;28;20076;-56
2023/12/18 11:09:32;;;;;;;43.42;19.50;;;;;;;;;;4999826;28;20106;-54
2023/12/18 11:11:58;;;;;;;40.10;19.55;;;;;;;;;;5006667;28;20590;-54
2023/12/18 11:14:32;;;;;;;26.77;13.63;;;;;;;;;;4999650;28;20041;-54
2023/12/18 11:17:01;;;;;;;42.78;19.73;;;;;;;;;;4998398;28;20035;-54
2023/12/18 11:19:37;;;;;;;31.98;17.45;;;;;;;;;;5000002;28;20083;-56
2023/12/18 11:22:04;;;;;;;36.42;18.70;;;;;;;;;;4999671;28;20061;-55
2023/12/18 11:24:37;;;;;;;31.85;17.52;;;;;;;;;;5001063;28;20576;-56
2023/12/18 11:27:04;;;;;;;25.38;13.63;;;;;;;;;;5003618;28;20121;-56
2023/12/18 11:29:43;;;;;;;35.00;16.42;;;;;;;;;;4998138;28;20165;-55
2023/12/18 11:32:29;;;;;;;34.13;16.75;;;;;;;;;;4996012;28;20038;-55
2023/12/18 11:34:58;;;;;;;33.03;17.08;;;;;;;;;;5000834;28;20063;-55
2023/12/18 11:37:24;;;;;;;33.90;17.25;;;;;;;;;;4998811;28;20075;-54
2023/12/18 11:39:50;;;;;;;33.10;17.48;;;;;;;;;;4999155;28;20490;-55
2023/12/18 11:42:36;;;;;;;32.03;15.77;;;;;;;;;;4999061;28;20494;-55
2023/12/18 11:45:05;;;;;;;29.75;16.17;;;;;;;;;;4998616;28;20506;-56
2023/12/18 11:47:31;;;;;;;31.35;16.00;;;;;;;;;;4999804;28;20042;-55
2023/12/18 11:49:57;;;;;;;34.35;16.17;;;;;;;;;;5003231;28;20401;-56
2023/12/18 11:52:25;;;;;;;30.58;15.43;;;;;;;;;;5001060;28;20046;-57
2023/12/18 11:54:51;;;;;;;31.65;16.33;;;;;;;;;;5001204;28;20378;-58
2023/12/18 11:57:21;;;;;;;36.33;16.95;;;;;;;;;;4999102;28;20040;-57
2023/12/18 11:59:47;;;;;;;36.88;17.05;;;;;;;;;;5000240;28;20121;-56
2023/12/18 12:02:14;;;;;;;32.17;15.93;;;;;;;;;;4998232;28;20482;-56
2023/12/18 12:04:40;;;;;;;31.23;15.07;;;;;;;;;;5000467;28;20440;-56
2023/12/18 12:07:06;;;;;;;35.88;16.48;;;;;;;;;;4999676;28;20513;-56
2023/12/18 12:09:32;;;;;;;27.40;15.77;;;;;;;;;;5009384;28;20044;-57
2023/12/18 12:11:58;;;;;;;29.70;16.35;;;;;;;;;;5000573;28;20479;-57
2023/12/18 12:14:26;;;;;;;30.70;16.60;;;;;;;;;;5001966;28;20048;-55
2023/12/18 12:17:05;;;;;;;29.67;14.85;;;;;;;;;;4997171;28;20037;-56
2023/12/18 12:19:34;;;;;;;33.03;16.20;;;;;;;;;;4986888;28;20628;-57
2023/12/18 12:22:01;;;;;;;31.60;16.85;;;;;;;;;;4995017;28;20057;-56
2023/12/18 12:24:27;;;;;;;30.40;15.85;;;;;;;;;;4996099;28;20046;-54
2023/12/18 12:26:54;;;;;;;32.30;16.02;;;;;;;;;;4999303;28;20402;-57
2023/12/18 12:29:20;;;;;;;35.30;16.50;;;;;;;;;;4993312;28;20560;-57
2023/12/18 12:31:46;;;;;;;36.35;17.17;;;;;;;;;;4996831;28;20081;-57
2023/12/18 12:34:14;;;;;;;32.42;16.83;;;;;;;;;;4990945;28;20196;-56
2023/12/18 12:36:40;;;;;;;32.75;15.98;;;;;;;;;;4997296;28;20136;-55
2023/12/18 12:39:06;;;;;;;35.15;16.63;;;;;;;;;;4993676;28;20486;-56
2023/12/18 12:41:32;;;;;;;30.15;16.25;;;;;;;;;;4999990;28;20091;-56
2023/12/18 12:43:58;;;;;;;29.98;16.13;;;;;;;;;;4999178;28;20041;-57
2023/12/18 12:46:24;;;;;;;33.15;16.30;;;;;;;;;;4999242;28;20378;-58
2023/12/18 12:48:50;;;;;;;31.20;16.90;;;;;;;;;;4999747;28;20057;-57
2023/12/18 12:51:16;;;;;;;31.92;16.15;;;;;;;;;;4990653;28;20041;-57
2023/12/18 12:53:42;;;;;;;32.17;16.85;;;;;;;;;;4994627;28;20058;-55
2023/12/18 12:56:10;;;;;;;32.03;17.00;;;;;;;;;;4992928;28;20034;-56
2023/12/18 12:58:36;;;;;;;31.20;15.80;;;;;;;;;;4996174;28;20034;-57
2023/12/18 13:01:02;;;;;;;34.60;16.20;;;;;;;;;;4997252;28;20049;-57
2023/12/18 13:03:29;;;;;;;32.03;15.57;;;;;;;;;;4998170;28;20394;-55
2023/12/18 13:05:55;;;;;;;30.55;15.43;;;;;;;;;;4998636;28;20038;-54
2023/12/18 13:08:21;;;;;;;31.75;15.73;;;;;;;;;;4993854;28;20133;-55
2023/12/18 13:10:47;;;;;;;30.83;15.32;;;;;;;;;;4999941;28;20526;-56
2023/12/18 13:13:13;;;;;;;31.90;16.50;;;;;;;;;;4998818;28;20129;-57
2023/12/18 13:15:38;;;;;;;32.70;17.50;;;;;;;;;;5000081;28;20033;-57
2023/12/18 13:18:04;;;;;;;30.25;15.80;;;;;;;;;;4998780;28;21770;-57
2023/12/18 13:20:30;;;;;;;29.65;15.50;;;;;;;;;;5002530;28;20046;-57
2023/12/18 13:22:57;;;;;;;37.85;17.10;;;;;;;;;;5000923;28;20521;-57
2023/12/18 13:25:23;;;;;;;32.22;16.23;;;;;;;;;;4997736;28;20041;-57
2023/12/18 13:27:49;;;;;;;36.67;17.20;;;;;;;;;;4999146;28;20091;-57
2023/12/18 13:30:15;;;;;;;32.13;15.65;;;;;;;;;;4998271;28;20034;-55
2023/12/18 13:32:41;;;;;;;33.45;16.08;;;;;;;;;;4999823;28;20052;-56
2023/12/18 13:35:07;;;;;;;28.30;15.68;;;;;;;;;;5002453;28;20034;-56
2023/12/18 13:37:33;;;;;;;29.55;14.77;;;;;;;;;;5000192;28;20334;-56
2023/12/18 13:39:59;;;;;;;28.65;16.02;;;;;;;;;;5001752;28;20661;-55
2023/12/18 13:42:26;;;;;;;30.05;16.55;;;;;;;;;;4998468;28;20128;-55
2023/12/18 13:44:52;;;;;;;32.20;16.85;;;;;;;;;;4998352;28;20031;-53
2023/12/18 13:47:18;;;;;;;31.85;15.88;;;;;;;;;;4995935;28;20045;-55
2023/12/18 13:49:44;;;;;;;30.50;16.20;;;;;;;;;;5002115;28;20596;-54
2023/12/18 13:52:10;;;;;;;27.80;15.55;;;;;;;;;;5001446;28;20061;-56
2023/12/18 13:54:36;;;;;;;25.92;14.73;;;;;;;;;;4999721;28;20132;-54
2023/12/18 13:57:02;;;;;;;27.50;14.45;;;;;;;;;;4994406;28;20256;-56
2023/12/18 13:59:28;;;;;;;25.85;15.00;;;;;;;;;;5002240;28;20038;-55
2023/12/18 14:01:54;;;;;;;29.85;15.18;;;;;;;;;;4999456;28;20161;-54
2023/12/18 14:04:20;;;;;;;30.25;14.88;;;;;;;;;;5001460;28;21421;-54
2023/12/18 14:06:46;;;;;;;26.27;13.50;;;;;;;;;;5001050;28;20108;-54
2023/12/18 14:09:12;;;;;;;27.58;14.63;;;;;;;;;;4999422;28;20038;-55
2023/12/18 14:11:38;;;;;;;29.75;14.95;;;;;;;;;;4999289;28;20045;-56
2023/12/18 14:14:04;;;;;;;28.00;14.63;;;;;;;;;;5000481;28;20478;-56